Погода Туруфна 2 недели

Республика Дагестан, Россия

27 мая-09 июня
  • 27мая
    Сегодня
    +11°
    +21°
    Небольшая облачность
    ВремяПогодаТемператураВлажностьДавлениеВетер, м/сВероятность осадков
    00:00Облачно с прояснениями+13°C94 %698 мм1.1 м/с8 %
    03:00Практически безоблачно+13°C91 %698 мм1.3 м/с6 %
    06:00Небольшая облачность+15°C82 %700 мм2.0 м/с2 %
    09:00Небольшая облачность+18°C76 %701 мм3.1 м/с5 %
    12:00Облачно с прояснениями+20°C62 %702 мм2.8 м/с26 %
    15:00Небольшая облачность+19°C60 %702 мм2.8 м/с21 %
    18:00Небольшая облачность+16°C69 %702 мм1.4 м/с11 %
    21:00Ясно и безоблачно+14°C80 %702 мм0.5 м/с2 %
  • 28мая
    Вторник
    +13°
    +23°
    Облачно с прояснениями
    ВремяПогодаТемператураВлажностьДавлениеВетер, м/сВероятность осадков
    00:00Практически безоблачно+12°C80 %701 мм0.8 м/с2 %
    03:00Небольшая облачность+11°C81 %700 мм0.8 м/с2 %
    06:00Ясно и безоблачно+15°C72 %701 мм0.6 м/с2 %
    09:00Ясно и безоблачно+21°C49 %702 мм2.1 м/с2 %
    12:00Облачно с прояснениями+22°C45 %702 мм2.8 м/с4 %
    15:00Облачно с прояснениями+21°C55 %701 мм1.8 м/с10 %
    18:00Практически безоблачно+18°C68 %701 мм0.9 м/с3 %
    21:00Практически безоблачно+14°C80 %700 мм0.7 м/с2 %
  • 29мая
    Среда
    +14°
    +26°
    Ясно и безоблачно
    ВремяПогодаТемператураВлажностьДавлениеВетер, м/сВероятность осадков
    00:00Практически безоблачно+15°C73 %699 мм0.8 м/с2 %
    03:00Облачно с прояснениями+15°C70 %698 мм0.5 м/с2 %
    06:00Ясно и безоблачно+16°C71 %698 мм0.5 м/с2 %
    09:00Ясно и безоблачно+22°C61 %699 мм1.4 м/с2 %
    12:00Практически безоблачно+25°C60 %698 мм1.6 м/с4 %
    15:00Ясно и безоблачно+24°C67 %697 мм1.7 м/с6 %
    18:00Ясно и безоблачно+21°C80 %697 мм1.0 м/с2 %
    21:00Ясно и безоблачно+16°C91 %697 мм1.3 м/с2 %
  • 30мая
    Четверг
    +16°
    +26°
    Небольшая облачность
    ВремяПогодаТемператураВлажностьДавлениеВетер, м/сВероятность осадков
    00:00Небольшая облачность+16°C81 %697 мм1.5 м/с3 %
    03:00Ясно и безоблачно+15°C77 %697 мм0.9 м/с2 %
    06:00Ясно и безоблачно+18°C69 %698 мм0.9 м/с4 %
    09:00Ясно и безоблачно+23°C61 %699 мм2.8 м/с3 %
    12:00Практически безоблачно+25°C62 %699 мм3.9 м/с20 %
    15:00Небольшая облачность+24°C65 %699 мм2.7 м/с25 %
    18:00Ясно и безоблачно+22°C74 %699 мм1.0 м/с4 %
    21:00Ясно и безоблачно+18°C81 %698 мм0.6 м/с2 %
  • 31мая
    Пятница
    +17°
    +29°
    Ясно и безоблачно
    ВремяПогодаТемператураВлажностьДавлениеВетер, м/сВероятность осадков
    00:00Ясно и безоблачно+17°C80 %697 мм1.0 м/с2 %
    03:00Ясно и безоблачно+17°C70 %697 мм1.2 м/с2 %
    06:00Ясно и безоблачно+20°C66 %698 мм0.9 м/с2 %
    09:00Ясно и безоблачно+26°C51 %699 мм1.2 м/с2 %
    12:00Ясно и безоблачно+28°C53 %698 мм2.4 м/с12 %
    15:00Ясно и безоблачно+27°C61 %698 мм2.5 м/с19 %
    18:00Практически безоблачно+23°C72 %698 мм1.9 м/с5 %
    21:00Ясно и безоблачно+20°C83 %698 мм1.2 м/с10 %
Мы используем cookies
Соглашаюсь